This is the latest recevied weather packets stored in our database for station/object FW7644. If no packets are shown the sender has not sent any weather packets the latest 10 day(s).
| Time | Temp. | Humidity | Pressure | Rain* | Wind** | Luminosity | Snow |
|---|---|---|---|---|---|---|---|
| 1778007336 | 29.44° C | 44% | 1022.3 hPa | 0 mm | - | - | - |
| 1778007034 | 29.44° C | 44% | 1022.4 hPa | 0 mm | - | - | - |
| 1778006732 | 29.44° C | 42% | 1022.4 hPa | 0 mm | - | - | - |
| 1778006431 | 30° C | 42% | 1022.3 hPa | 0 mm | - | - | - |
| 1778006129 | 30° C | 42% | 1022.3 hPa | 0 mm | - | - | - |
| 1778005827 | 30° C | 42% | 1022.4 hPa | 0 mm | - | - | - |
| 1778005525 | 28.33° C | 44% | 1022.3 hPa | 0 mm | - | - | - |
| 1778005223 | 28.33° C | 45% | 1022.4 hPa | 0 mm | - | - | - |
| 1778004922 | 28.89° C | 44% | 1022.4 hPa | 0 mm | - | - | - |
| 1778004620 | 29.44° C | 44% | 1022.4 hPa | 0 mm | - | - | - |
| 1778004318 | 30.56° C | 40% | 1022.5 hPa | 0 mm | - | - | - |
| 1778004017 | 29.44° C | 42% | 1022.4 hPa | 0 mm | - | - | - |
| 1778003715 | 28.89° C | 45% | 1022.4 hPa | 0 mm | - | - | - |
| 1778003413 | 26.67° C | 51% | 1022.5 hPa | 0 mm | - | - | - |
| 1778003111 | 26.67° C | 50% | 1022.5 hPa | 0 mm | - | - | - |
| 1778002810 | 26.67° C | 49% | 1022.6 hPa | 0 mm | - | - | - |
| 1778002508 | 27.22° C | 48% | 1022.6 hPa | 0 mm | - | - | - |
| 1778002207 | 27.22° C | 48% | 1022.7 hPa | 0 mm | - | - | - |
| 1778001905 | 27.22° C | 46% | 1022.7 hPa | 0 mm | - | - | - |
| 1778001603 | 28.89° C | 43% | 1022.7 hPa | 0 mm | - | - | - |
| 1778001301 | 28.33° C | 46% | 1022.7 hPa | 0 mm | - | - | - |
| 1778001000 | 27.78° C | 47% | 1022.7 hPa | 0 mm | - | - | - |
| 1778000698 | 27.78° C | 46% | 1022.7 hPa | 0 mm | - | - | - |
| 1778000397 | 29.44° C | 44% | 1022.7 hPa | 0 mm | - | - | - |
| 1778000095 | 27.78° C | 48% | 1022.7 hPa | 0 mm | - | - | - |
* Rain latest hour (hover to see other rain measurements)
** Current wind speed in m/s (hover to see current wind gust speed)